AirNav   Phillips 66 Aviation Fuel
 
 1529 users online  

T00 Chambers County Airport
Anahuac, Texas, USA

GOING TO ANAHUAC?


FAA INFORMATION EFFECTIVE 19 JULY 2018

Location

FAA Identifier: T00
Lat/Long: 29-46-11.3332N / 094-39-48.5535W
29-46.188887N / 094-39.809225W
29.7698148 / -94.6634871
(estimated)
Elevation: 21.2 ft. / 6.5 m (surveyed)
Variation: 05E (1995)
From city: 1 mile E of ANAHUAC, TX
Time zone: UTC -5 (UTC -6 during Standard Time)
Zip code: 77514

Airport Operations

Airport use: Open to the public
Activation date: 10/1978
Control tower: no
ARTCC: HOUSTON CENTER
FSS: MONTGOMERY COUNTY FLIGHT SERVICE STATION
NOTAMs facility: CXO (NOTAM-D service available)
Attendance: MON-FRI 0800-1700
Wind indicator: lighted
Segmented circle: yes
Lights: DUSK-DAWN. MIRL RY 12/30 PRESET LOW INTST; TO INCR INTST ACTVT - CTAF.
Beacon: white-green (lighted land airport)
Operates sunset to sunrise.

Airport Communications

CTAF: 122.9
HOUSTON APPROACH: 134.45 [0600-0000]
HOUSTON DEPARTURE: 134.45 [0600-0000]
BORRN DP: 134.45
DREMR DP: 134.45
INDIE DP: 134.45
KARRR DP: 134.45
LURIC DP: 134.45
MMALT DP: 134.45
STRYA DP: 134.45
STYCK DP: 134.45
WATFO DP: 134.45
WYLSN DP: 134.45

Nearby radio navigation aids

VOR radial/distance  VOR name  Freq  Var
MHFr011/14.1TRINITY VOR/DME113.6007E
DASr177/25.2DAISETTA VORTAC116.9005E
VUHr014/31.9SCHOLES VOR/DME113.0006E
HUBr073/32.7HOBBY VOR/DME117.1005E
SBIr272/33.0SABINE PASS VOR/DME115.4007E
BPTr246/35.3BEAUMONT VOR/DME114.5007E
IAHr103/37.2HUMBLE VORTAC116.6005E

 
NDB name  Hdg/Dist  Freq  Var  ID
GALVESTON002/26.620608EGLS --. .-.. ...
GOODHUE226/29.636807EGDE --. -.. .
NIXIN110/31.732605EBVP -... ...- .--.
HARDIN COUNTY208/39.952404EHRD .... .-. -..

Airport Services

Fuel available: 100LL JET-A
Parking: tiedowns
Bottled oxygen: NONE
Bulk oxygen: NONE

Runway Information

Runway 12/30

Dimensions: 3005 x 60 ft. / 916 x 18 m
Surface: asphalt, in fair condition
Weight bearing capacity: 
Single wheel: 13.0
Runway edge lights: medium intensity
Runway edge markings: MARKINGS FADED.
RUNWAY 12  RUNWAY 30
Latitude: 29-46.363987N29-46.053815N
Longitude: 094-39.966058W094-39.522763W
Elevation: 20.4 ft.20.4 ft.
Traffic pattern: leftright
Runway heading: 124 magnetic, 129 true304 magnetic, 309 true
Markings: nonprecision, in poor conditionnonprecision, in poor condition
Visual slope indicator: 2-light PAPI on left (4.00 degrees glide path)
Touchdown point: yes, no lightsyes, no lights
Obstructions: 30 ft. pole, 875 ft. from runway, 171 ft. left of centerline, 22:1 slope to clear15 ft. road, 530 ft. from runway, 280 ft. left of centerline, 22:1 slope to clear

Runway 17/35

Dimensions: 1900 x 300 ft. / 579 x 91 m
Surface: turf, in good condition
Runway edge markings: 17/35 OUTLINED BY STRIP MARKERS.
RUNWAY 17  RUNWAY 35
Latitude: 29-46.313965N29-46.000500N
Longitude: 094-39.911733W094-39.911733W
Elevation: 20.0 ft.20.0 ft.
Gradient: 0.1%0.1%
Traffic pattern: leftright
Runway heading: 175 magnetic, 180 true355 magnetic, 000 true
Obstructions: 56 ft. trees, 852 ft. from runway, 119 ft. left of centerline, 15:1 slope to clear15 ft. road, 230 ft. from runway, 15:1 slope to clear

Airport Ownership and Management from official FAA records

Ownership: Publicly-owned
Owner: CHAMBERS COUNTY
PO BOX 938
ANAHUAC, TX 77514
Phone 409-267-2719
Manager: KELLY TRAHAN
PO BOX 938
ANAHUAC, TX 77514
Phone 409-267-2719

Airport Operational Statistics

Aircraft based on the field: 7
Single engine airplanes: 5
Multi engine airplanes: 1
Ultralights: 1
    
Aircraft operations: avg 46/week *
67% local general aviation
33% transient general aviation
* for 12-month period ending 28 March 2017

Additional Remarks

RWY 17/35 SOFT WHEN WET.
RWY 17/35 USE EXTREME CARE; PAPI RY 12 LOCATED NORTH LIMITS OF TURF RWY.
FOR CD CTC HOUSTON APCH AT 281-443-5844 TO CNL IFR CALL 281-443-5888.
TAXIWAY BRAVO HAS A POT HOLE AND BROKEN ASPHALT.

Instrument Procedures

NOTE: All procedures below are presented as PDF files. If you need a reader for these files, you should download the free Adobe Reader.

NOT FOR NAVIGATION. Please procure official charts for flight.
FAA instrument procedures published for use from 19 July 2018 at 0901Z to 16 August 2018 at 0900Z.

 
STARs - Standard Terminal Arrivals
BLUBELL THREE   download (296KB)
CESAN FOUR (RNAV)   2 pages: [1] [2] (361KB)
HUDZY THREE **CHANGED**   2 pages: [1] [2] (328KB)
OHIIO FOUR   download (294KB)
TCHDN TWO   2 pages: [1] [2] (357KB)
TKNIQ TWO (RNAV)   2 pages: [1] [2] (285KB)
WAPPL FOUR (RNAV)   2 pages: [1] [2] (379KB)
WAPPL FOUR (RNAV), CONT.2   download (264KB)
 
IAPs - Instrument Approach Procedures
RNAV (GPS) RWY 12   download (166KB)
 
Departure Procedures
BLTWY FIVE (RNAV) **NEW**   download (129KB)
BORRN THREE (RNAV)   2 pages: [1] [2] (258KB)
HOODO FIVE (RNAV)   2 pages: [1] [2] (214KB)
INDIE SIX (RNAV) **NEW**   download (156KB)
KARRR FOUR (RNAV)   2 pages: [1] [2] (208KB)
LURIC SIX (RNAV) **NEW**   download (175KB)
MMALT FOUR (RNAV) **NEW**   download (190KB)
STRYA SIX (RNAV) **NEW**   download (164KB)
STYCK SIX (RNAV) **NEW**   download (152KB)
WATFO FOUR (RNAV)   download (137KB)
WYLSN SIX (RNAV) **NEW**   download (140KB)
NOTE: Special Take-Off Minimums/Departure Procedures apply   download (70KB)

Other nearby airports with instrument procedures:

54T - RWJ Airpark (10 nm W)
KHPY - Baytown Airport (15 nm W)
T78 - Liberty Municipal Airport (19 nm N)
T41 - La Porte Municipal Airport (22 nm W)
KEFD - Ellington Airport (28 nm W)
 
Loc | Ops | Rwys | IFR | FBO | Links
Com | Nav | Svcs | Stats | Notes


 
Area around T00 (Chambers County Airport)
 
Road maps at: MapQuest Bing Google
 
Aerial photo
WARNING: Photo may not be current or correct
Aerial photo of T00 (Chambers County Airport)
Photo taken 04-Mar-2007
on final for runway 30

Do you have a better or more recent aerial photo of Chambers County Airport that you would like to share? If so, please send us your photo.

 
Sectional chart

 
Airport distance calculator
Flying to Chambers County Airport? Find the distance to fly.

From to T00

Sunrise and sunset
Times for 20-Jul-2018
 Local
(UTC-5)
 Zulu
(UTC)
Morning civil twilight06:0511:05
Sunrise06:3211:32
Sunset20:1801:18
Evening civil twilight20:4401:44

Current date and time
Zulu (UTC)  20-Jul-2018 17:35:02
Local (UTC-5)  20-Jul-2018 12:35:02
 
METAR
KEFD 
28nm W 
201650Z 23006KT 10SM FEW020 32/25 A3001
KBMT 
29nm NE 
201715Z AUTO 23006KT 10SM SCT028 33/24 A3000 RMK AO2 LTG DSNT SE T03300237
KGLS 
32nm S 
201652Z 19011KT 10SM FEW026 SCT033 32/26 A3001 RMK AO2 SLP162 T03170261
KHOU 
33nm W 
201653Z 20006KT 9SM CLR 32/24 A2999 RMK AO2 SLP158 T03220244
KLVJ 
34nm SW 
201653Z AUTO 9SM CLR 32/23 A3000 RMK AO2 SLP159 T03220228
KBPT 
35nm E 
201653Z 25008KT 10SM CLR 33/24 A2999 RMK AO2 SLP154 T03280239
KXIH 
36nm S 
201715Z AUTO 25007KT 8SM CLR 30/25 A3000 RMK A01
KIAH 
39nm W 
201653Z 25006KT 10SM FEW035 33/23 A2999 RMK AO2 SLP154 T03280228
K6R3 
39nm NW 
201715Z AUTO 22006KT 7SM CLR 33/20 A3000 RMK AO2 T03290197
KAXH 
45nm W 
201715Z AUTO 21006KT 10SM CLR 32/24 A3000 RMK AO2 T03240243
TAF
KEFD 
28nm W 
200400Z 2004/2110 23006KT 9999 BKN250 QNH2983INS BECMG 2009/2010 23006KT 9999 SCT015 QNH2993INS BECMG 2011/2012 23009KT 9999 BKN012 QNH2996INS BECMG 2015/2016 23012KT 9999 FEW015 QNH2988INS BECMG 2023/2024 18009KT 9999 FEW025 QNH2988INS TX37/2021Z TN23/2012Z
KGLS 
32nm S 
201129Z 2012/2112 22011KT P6SM SCT015= TAF SCDA 201026Z 2012/2112 17004KT 9999 OVC015 TX17/2018Z TN14/2106Z BECMG 2016/2018 22015KT CAVOK BECMG 2020/2022 17008KT BKN025 BECMG 2102/2104 22004KT OVC016 BECMG 2106/2108 33004KT
KHOU 
33nm W 
201459Z 2015/2112 22011KT P6SM SCT020 FM201600 23008KT P6SM FEW025 FEW050 FM202200 19008KT P6SM SKC FM210200 21004KT P6SM FEW012
KBPT 
35nm E 
201120Z 2012/2112 21007KT P6SM SKC FM201500 24009KT P6SM FEW050
NOTAMs
Click for the latest NOTAMs
NOTAMs are issued by the DoD/FAA and will open in a separate window not controlled by AirNav.

 

 
 

FBO, Fuel Providers, and Aircraft Ground Support

  
 Business Name 
 
 Contact 
 
 Services / Description 
 
Fuel Prices
 
Comments
  
Chambers County Anahuac Airport 409-267-2719
no information available

If you are affiliated with Chambers County Anahuac Airport and would like to show here your services, contact info, web link, logo, and more, click here
100LL Jet A
SS $4.00 $3.40 
 Updated 17-Jul-2018
 
   3 read write
SS=Self service
Update Fuel Prices
 

Would you like to see your business listed on this page?

 If your business provides an interesting product or service to pilots, flight crews, aircraft, or users of the Chambers County Airport, you should consider listing it here.  To start the listing process, click on the button below
 
Add a business
 

Other Pages about Chambers County Airport

www.co.chambers.tx.us/...
 
Update a link
 
Copyright © AirNav, LLC. All rights reserved. Privacy Policy  Contact